San Luis, Colorado
Current Conditions -  °F | °C
As of 3:31 PM on Sunday 21 Dec 2014 (Local Time) from KVTP Reporting Station
Clear Clear  
Wind Chill: 16°   Ceiling: Unl
Heat Index: 28°   Visibility: 10mi
Dew Point: 19°   Wind: 17mph
Humidity: 69%   Direction: 200°SSW
Pressure: 29.74"   Gusts: 35mph
Location:  37.2°N, 105.42°W
Report Text: KVTP 212231Z AUTO 20015G30KT 170V230 10SM CLR M02/M07 A2974 RMK AO2
Loading
Personal Weather Stations






























Interactive Weather Map New forecast layout! Learn more

10-Day Weather Forecast

Advertisements
Track Severe Weather on mobile